sensor_id;sensor_type;location;lat;lon;timestamp;P1;durP1;ratioP1;P2;durP2;ratioP2
5149;SDS011;2593;52.466;13.436;2023-05-10T00:01:52;17.27;;;6.60;;
5149;SDS011;2593;52.466;13.436;2023-05-10T00:04:18;14.23;;;6.43;;
5149;SDS011;2593;52.466;13.436;2023-05-10T00:06:44;11.67;;;6.57;;
5149;SDS011;2593;52.466;13.436;2023-05-10T00:09:10;14.00;;;6.77;;
5149;SDS011;2593;52.466;13.436;2023-05-10T00:11:36;9.73;;;6.10;;
5149;SDS011;2593;52.466;13.436;2023-05-10T00:14:02;7.43;;;5.20;;
5149;SDS011;2593;52.466;13.436;2023-05-10T00:16:28;8.13;;;6.17;;
5149;SDS011;2593;52.466;13.436;2023-05-10T00:18:54;20.47;;;6.77;;
5149;SDS011;2593;52.466;13.436;2023-05-10T00:21:20;8.20;;;6.63;;
5149;SDS011;2593;52.466;13.436;2023-05-10T00:23:47;8.00;;;5.40;;
5149;SDS011;2593;52.466;13.436;2023-05-10T00:26:13;9.30;;;5.57;;
5149;SDS011;2593;52.466;13.436;2023-05-10T00:28:39;9.07;;;6.77;;
5149;SDS011;2593;52.466;13.436;2023-05-10T00:31:05;10.33;;;6.47;;
5149;SDS011;2593;52.466;13.436;2023-05-10T00:33:31;13.00;;;7.07;;
5149;SDS011;2593;52.466;13.436;2023-05-10T00:35:57;7.23;;;6.10;;
5149;SDS011;2593;52.466;13.436;2023-05-10T00:38:23;10.70;;;7.00;;
5149;SDS011;2593;52.466;13.436;2023-05-10T00:40:49;8.53;;;6.20;;
5149;SDS011;2593;52.466;13.436;2023-05-10T00:43:16;13.00;;;6.77;;
5149;SDS011;2593;52.466;13.436;2023-05-10T00:45:42;10.70;;;6.70;;
5149;SDS011;2593;52.466;13.436;2023-05-10T00:48:08;14.10;;;7.47;;
5149;SDS011;2593;52.466;13.436;2023-05-10T00:50:34;14.07;;;7.50;;
5149;SDS011;2593;52.466;13.436;2023-05-10T00:53:00;14.77;;;8.13;;
5149;SDS011;2593;52.466;13.436;2023-05-10T00:55:26;15.57;;;7.60;;
5149;SDS011;2593;52.466;13.436;2023-05-10T00:57:53;10.93;;;7.27;;
5149;SDS011;2593;52.466;13.436;2023-05-10T01:00:19;10.20;;;7.87;;
5149;SDS011;2593;52.466;13.436;2023-05-10T01:02:46;11.03;;;7.20;;
5149;SDS011;2593;52.466;13.436;2023-05-10T01:05:12;14.87;;;7.70;;
5149;SDS011;2593;52.466;13.436;2023-05-10T01:07:39;11.17;;;7.27;;
5149;SDS011;2593;52.466;13.436;2023-05-10T01:10:06;13.50;;;7.33;;
5149;SDS011;2593;52.466;13.436;2023-05-10T01:12:33;10.23;;;7.77;;
5149;SDS011;2593;52.466;13.436;2023-05-10T01:15:00;10.53;;;7.60;;
5149;SDS011;2593;52.466;13.436;2023-05-10T01:17:27;10.73;;;7.50;;
5149;SDS011;2593;52.466;13.436;2023-05-10T01:19:53;10.97;;;7.37;;
5149;SDS011;2593;52.466;13.436;2023-05-10T01:25:11;16.70;;;7.23;;
5149;SDS011;2593;52.466;13.436;2023-05-10T01:40:40;13.67;;;8.90;;
5149;SDS011;2593;52.466;13.436;2023-05-10T01:43:08;20.13;;;7.10;;
5149;SDS011;2593;52.466;13.436;2023-05-10T01:45:37;14.40;;;7.97;;
5149;SDS011;2593;52.466;13.436;2023-05-10T01:48:06;8.67;;;7.30;;
5149;SDS011;2593;52.466;13.436;2023-05-10T01:50:32;7.87;;;7.07;;
5149;SDS011;2593;52.466;13.436;2023-05-10T01:53:00;10.50;;;6.43;;
5149;SDS011;2593;52.466;13.436;2023-05-10T01:55:29;8.60;;;7.20;;
5149;SDS011;2593;52.466;13.436;2023-05-10T01:58:01;8.00;;;6.53;;
5149;SDS011;2593;52.466;13.436;2023-05-10T02:00:27;8.53;;;7.17;;
5149;SDS011;2593;52.466;13.436;2023-05-10T02:02:54;8.00;;;6.63;;
5149;SDS011;2593;52.466;13.436;2023-05-10T02:05:21;13.73;;;6.70;;
5149;SDS011;2593;52.466;13.436;2023-05-10T02:07:47;9.33;;;6.40;;
5149;SDS011;2593;52.466;13.436;2023-05-10T02:10:13;10.27;;;7.10;;
5149;SDS011;2593;52.466;13.436;2023-05-10T02:12:44;11.33;;;6.87;;
5149;SDS011;2593;52.466;13.436;2023-05-10T02:15:11;10.63;;;6.70;;
5149;SDS011;2593;52.466;13.436;2023-05-10T02:17:38;9.77;;;6.40;;
5149;SDS011;2593;52.466;13.436;2023-05-10T02:20:05;23.30;;;6.87;;
5149;SDS011;2593;52.466;13.436;2023-05-10T02:22:36;9.90;;;7.17;;
5149;SDS011;2593;52.466;13.436;2023-05-10T02:25:03;14.53;;;8.27;;
5149;SDS011;2593;52.466;13.436;2023-05-10T02:27:29;9.43;;;7.07;;
5149;SDS011;2593;52.466;13.436;2023-05-10T02:29:56;9.53;;;7.13;;
5149;SDS011;2593;52.466;13.436;2023-05-10T02:32:23;10.70;;;6.83;;
5149;SDS011;2593;52.466;13.436;2023-05-10T02:34:50;9.37;;;6.90;;
5149;SDS011;2593;52.466;13.436;2023-05-10T02:37:18;12.23;;;6.87;;
5149;SDS011;2593;52.466;13.436;2023-05-10T02:39:48;9.30;;;6.43;;
5149;SDS011;2593;52.466;13.436;2023-05-10T02:42:18;8.43;;;6.33;;
5149;SDS011;2593;52.466;13.436;2023-05-10T02:44:47;9.90;;;6.70;;
5149;SDS011;2593;52.466;13.436;2023-05-10T02:47:14;15.37;;;7.80;;
5149;SDS011;2593;52.466;13.436;2023-05-10T02:49:40;16.43;;;6.53;;
5149;SDS011;2593;52.466;13.436;2023-05-10T02:52:06;7.10;;;5.90;;
5149;SDS011;2593;52.466;13.436;2023-05-10T02:54:34;9.93;;;6.87;;
5149;SDS011;2593;52.466;13.436;2023-05-10T02:57:05;9.00;;;7.10;;
5149;SDS011;2593;52.466;13.436;2023-05-10T02:59:32;9.37;;;6.20;;
5149;SDS011;2593;52.466;13.436;2023-05-10T03:01:58;8.97;;;5.60;;
5149;SDS011;2593;52.466;13.436;2023-05-10T03:04:28;18.27;;;6.03;;
5149;SDS011;2593;52.466;13.436;2023-05-10T03:06:54;10.70;;;6.30;;
5149;SDS011;2593;52.466;13.436;2023-05-10T03:09:20;9.20;;;6.33;;
5149;SDS011;2593;52.466;13.436;2023-05-10T03:14:36;19.10;;;6.10;;
5149;SDS011;2593;52.466;13.436;2023-05-10T03:17:06;14.63;;;6.27;;
5149;SDS011;2593;52.466;13.436;2023-05-10T03:22:03;9.37;;;5.90;;
5149;SDS011;2593;52.466;13.436;2023-05-10T03:24:33;18.43;;;6.57;;
5149;SDS011;2593;52.466;13.436;2023-05-10T03:27:01;7.17;;;6.47;;
5149;SDS011;2593;52.466;13.436;2023-05-10T03:29:29;10.73;;;5.83;;
5149;SDS011;2593;52.466;13.436;2023-05-10T03:31:57;16.60;;;6.33;;
5149;SDS011;2593;52.466;13.436;2023-05-10T03:34:23;11.30;;;6.20;;
5149;SDS011;2593;52.466;13.436;2023-05-10T03:36:49;16.70;;;6.77;;
5149;SDS011;2593;52.466;13.436;2023-05-10T03:39:15;14.97;;;6.93;;
5149;SDS011;2593;52.466;13.436;2023-05-10T03:41:41;7.27;;;5.80;;
5149;SDS011;2593;52.466;13.436;2023-05-10T03:44:07;7.53;;;6.30;;
5149;SDS011;2593;52.466;13.436;2023-05-10T03:46:34;8.87;;;6.87;;
5149;SDS011;2593;52.466;13.436;2023-05-10T03:49:00;9.97;;;5.57;;
5149;SDS011;2593;52.466;13.436;2023-05-10T03:51:26;10.23;;;6.37;;
5149;SDS011;2593;52.466;13.436;2023-05-10T03:53:53;12.70;;;6.10;;
5149;SDS011;2593;52.466;13.436;2023-05-10T03:56:20;5.73;;;5.03;;
5149;SDS011;2593;52.466;13.436;2023-05-10T03:58:46;14.13;;;6.87;;
5149;SDS011;2593;52.466;13.436;2023-05-10T04:01:12;20.67;;;6.03;;
5149;SDS011;2593;52.466;13.436;2023-05-10T04:03:38;8.17;;;5.90;;
5149;SDS011;2593;52.466;13.436;2023-05-10T04:06:05;7.93;;;4.73;;
5149;SDS011;2593;52.466;13.436;2023-05-10T04:08:33;17.50;;;6.27;;
5149;SDS011;2593;52.466;13.436;2023-05-10T04:11:09;11.90;;;6.30;;
5149;SDS011;2593;52.466;13.436;2023-05-10T04:13:35;9.40;;;6.43;;
5149;SDS011;2593;52.466;13.436;2023-05-10T04:16:02;10.67;;;6.33;;
5149;SDS011;2593;52.466;13.436;2023-05-10T04:18:28;12.73;;;5.93;;
5149;SDS011;2593;52.466;13.436;2023-05-10T04:20:54;9.53;;;6.33;;
5149;SDS011;2593;52.466;13.436;2023-05-10T04:23:20;16.33;;;6.33;;
5149;SDS011;2593;52.466;13.436;2023-05-10T04:25:46;15.40;;;6.50;;
5149;SDS011;2593;52.466;13.436;2023-05-10T04:28:12;11.90;;;6.23;;
5149;SDS011;2593;52.466;13.436;2023-05-10T04:30:38;7.90;;;5.50;;
5149;SDS011;2593;52.466;13.436;2023-05-10T04:33:05;19.73;;;6.53;;
5149;SDS011;2593;52.466;13.436;2023-05-10T04:35:31;7.43;;;5.37;;
5149;SDS011;2593;52.466;13.436;2023-05-10T04:37:57;13.33;;;6.03;;
5149;SDS011;2593;52.466;13.436;2023-05-10T04:40:23;7.10;;;5.90;;
5149;SDS011;2593;52.466;13.436;2023-05-10T04:42:49;6.30;;;5.67;;
5149;SDS011;2593;52.466;13.436;2023-05-10T04:45:16;7.10;;;5.07;;
5149;SDS011;2593;52.466;13.436;2023-05-10T04:47:42;7.87;;;5.37;;
5149;SDS011;2593;52.466;13.436;2023-05-10T04:50:08;20.13;;;5.63;;
5149;SDS011;2593;52.466;13.436;2023-05-10T04:52:34;11.33;;;5.73;;
5149;SDS011;2593;52.466;13.436;2023-05-10T04:55:01;9.00;;;5.63;;
5149;SDS011;2593;52.466;13.436;2023-05-10T04:57:27;5.80;;;4.33;;
5149;SDS011;2593;52.466;13.436;2023-05-10T04:59:53;14.20;;;5.00;;
5149;SDS011;2593;52.466;13.436;2023-05-10T05:02:19;9.23;;;5.80;;
5149;SDS011;2593;52.466;13.436;2023-05-10T05:04:45;7.13;;;5.13;;
5149;SDS011;2593;52.466;13.436;2023-05-10T05:07:11;9.10;;;5.07;;
5149;SDS011;2593;52.466;13.436;2023-05-10T05:09:37;9.27;;;5.60;;
5149;SDS011;2593;52.466;13.436;2023-05-10T05:12:03;11.67;;;5.23;;
5149;SDS011;2593;52.466;13.436;2023-05-10T05:14:29;6.33;;;4.50;;
5149;SDS011;2593;52.466;13.436;2023-05-10T05:16:56;5.13;;;4.70;;
5149;SDS011;2593;52.466;13.436;2023-05-10T05:19:22;6.43;;;4.60;;
5149;SDS011;2593;52.466;13.436;2023-05-10T05:21:48;8.30;;;4.60;;
5149;SDS011;2593;52.466;13.436;2023-05-10T05:24:14;7.93;;;4.97;;
5149;SDS011;2593;52.466;13.436;2023-05-10T05:26:40;6.70;;;4.73;;
5149;SDS011;2593;52.466;13.436;2023-05-10T05:29:06;4.87;;;4.10;;
5149;SDS011;2593;52.466;13.436;2023-05-10T05:31:32;12.00;;;5.07;;
5149;SDS011;2593;52.466;13.436;2023-05-10T05:33:58;13.93;;;4.53;;
5149;SDS011;2593;52.466;13.436;2023-05-10T05:36:24;4.77;;;4.20;;
5149;SDS011;2593;52.466;13.436;2023-05-10T05:38:50;8.37;;;4.43;;
5149;SDS011;2593;52.466;13.436;2023-05-10T05:41:16;11.10;;;4.00;;
5149;SDS011;2593;52.466;13.436;2023-05-10T05:43:42;6.50;;;3.97;;
5149;SDS011;2593;52.466;13.436;2023-05-10T05:46:08;20.33;;;4.50;;
5149;SDS011;2593;52.466;13.436;2023-05-10T05:48:35;9.43;;;4.40;;
5149;SDS011;2593;52.466;13.436;2023-05-10T05:51:01;9.03;;;5.10;;
5149;SDS011;2593;52.466;13.436;2023-05-10T05:53:27;9.03;;;4.57;;
5149;SDS011;2593;52.466;13.436;2023-05-10T05:55:54;5.10;;;3.83;;
5149;SDS011;2593;52.466;13.436;2023-05-10T05:58:20;7.60;;;3.67;;
5149;SDS011;2593;52.466;13.436;2023-05-10T06:00:47;5.00;;;4.07;;
5149;SDS011;2593;52.466;13.436;2023-05-10T06:03:13;8.00;;;3.93;;
5149;SDS011;2593;52.466;13.436;2023-05-10T06:05:39;5.50;;;4.70;;
5149;SDS011;2593;52.466;13.436;2023-05-10T06:08:05;9.83;;;4.80;;
5149;SDS011;2593;52.466;13.436;2023-05-10T06:10:31;6.83;;;4.00;;
5149;SDS011;2593;52.466;13.436;2023-05-10T06:12:57;8.40;;;3.80;;
5149;SDS011;2593;52.466;13.436;2023-05-10T06:15:23;15.53;;;5.37;;
5149;SDS011;2593;52.466;13.436;2023-05-10T06:17:49;14.73;;;4.37;;
5149;SDS011;2593;52.466;13.436;2023-05-10T06:20:15;6.90;;;4.03;;
5149;SDS011;2593;52.466;13.436;2023-05-10T06:22:42;4.53;;;3.23;;
5149;SDS011;2593;52.466;13.436;2023-05-10T06:25:08;6.00;;;4.60;;
5149;SDS011;2593;52.466;13.436;2023-05-10T06:27:34;7.70;;;3.73;;
5149;SDS011;2593;52.466;13.436;2023-05-10T06:30:00;4.87;;;4.00;;
5149;SDS011;2593;52.466;13.436;2023-05-10T06:32:27;9.43;;;4.00;;
5149;SDS011;2593;52.466;13.436;2023-05-10T06:34:53;14.33;;;3.50;;
5149;SDS011;2593;52.466;13.436;2023-05-10T06:37:19;6.63;;;3.17;;
5149;SDS011;2593;52.466;13.436;2023-05-10T06:39:45;3.00;;;2.60;;
5149;SDS011;2593;52.466;13.436;2023-05-10T06:42:11;7.23;;;3.30;;
5149;SDS011;2593;52.466;13.436;2023-05-10T06:44:37;3.50;;;3.20;;
5149;SDS011;2593;52.466;13.436;2023-05-10T06:47:03;4.33;;;3.43;;
5149;SDS011;2593;52.466;13.436;2023-05-10T06:49:29;7.50;;;3.80;;
5149;SDS011;2593;52.466;13.436;2023-05-10T06:51:55;7.53;;;3.57;;
5149;SDS011;2593;52.466;13.436;2023-05-10T06:54:22;3.10;;;2.80;;
5149;SDS011;2593;52.466;13.436;2023-05-10T06:56:48;4.90;;;3.20;;
5149;SDS011;2593;52.466;13.436;2023-05-10T06:59:14;14.07;;;3.40;;
5149;SDS011;2593;52.466;13.436;2023-05-10T07:01:41;14.20;;;3.50;;
5149;SDS011;2593;52.466;13.436;2023-05-10T07:04:07;12.97;;;3.73;;
5149;SDS011;2593;52.466;13.436;2023-05-10T07:06:33;5.00;;;3.23;;
5149;SDS011;2593;52.466;13.436;2023-05-10T07:09:00;10.40;;;3.30;;
5149;SDS011;2593;52.466;13.436;2023-05-10T07:11:26;6.57;;;3.03;;
5149;SDS011;2593;52.466;13.436;2023-05-10T07:13:52;7.30;;;3.50;;
5149;SDS011;2593;52.466;13.436;2023-05-10T07:16:19;7.13;;;3.30;;
5149;SDS011;2593;52.466;13.436;2023-05-10T07:18:46;8.50;;;3.40;;
5149;SDS011;2593;52.466;13.436;2023-05-10T07:21:12;6.60;;;2.67;;
5149;SDS011;2593;52.466;13.436;2023-05-10T07:23:38;4.47;;;3.10;;
5149;SDS011;2593;52.466;13.436;2023-05-10T07:26:06;6.40;;;2.70;;
5149;SDS011;2593;52.466;13.436;2023-05-10T07:28:32;4.40;;;2.90;;
5149;SDS011;2593;52.466;13.436;2023-05-10T07:30:58;8.13;;;3.60;;
5149;SDS011;2593;52.466;13.436;2023-05-10T07:33:24;3.40;;;2.73;;
5149;SDS011;2593;52.466;13.436;2023-05-10T07:35:50;9.77;;;3.20;;
5149;SDS011;2593;52.466;13.436;2023-05-10T07:38:16;5.50;;;3.20;;
5149;SDS011;2593;52.466;13.436;2023-05-10T07:40:42;2.90;;;2.70;;
5149;SDS011;2593;52.466;13.436;2023-05-10T07:43:08;8.27;;;3.23;;
5149;SDS011;2593;52.466;13.436;2023-05-10T07:45:34;8.77;;;3.03;;
5149;SDS011;2593;52.466;13.436;2023-05-10T07:48:01;6.10;;;3.30;;
5149;SDS011;2593;52.466;13.436;2023-05-10T07:50:27;8.73;;;2.87;;
5149;SDS011;2593;52.466;13.436;2023-05-10T07:52:53;4.17;;;3.03;;
5149;SDS011;2593;52.466;13.436;2023-05-10T07:55:19;3.03;;;2.70;;
5149;SDS011;2593;52.466;13.436;2023-05-10T07:57:48;18.33;;;2.87;;
5149;SDS011;2593;52.466;13.436;2023-05-10T08:00:16;7.17;;;3.33;;
5149;SDS011;2593;52.466;13.436;2023-05-10T08:02:43;6.00;;;2.70;;
5149;SDS011;2593;52.466;13.436;2023-05-10T08:05:09;8.30;;;3.33;;
5149;SDS011;2593;52.466;13.436;2023-05-10T08:07:35;5.93;;;3.83;;
5149;SDS011;2593;52.466;13.436;2023-05-10T08:10:02;6.33;;;3.23;;
5149;SDS011;2593;52.466;13.436;2023-05-10T08:12:28;3.07;;;2.70;;
5149;SDS011;2593;52.466;13.436;2023-05-10T08:14:55;4.70;;;2.60;;
5149;SDS011;2593;52.466;13.436;2023-05-10T08:17:21;3.63;;;2.90;;
5149;SDS011;2593;52.466;13.436;2023-05-10T08:19:47;7.40;;;3.20;;
5149;SDS011;2593;52.466;13.436;2023-05-10T08:22:13;5.43;;;3.20;;
5149;SDS011;2593;52.466;13.436;2023-05-10T08:24:39;3.07;;;2.77;;
5149;SDS011;2593;52.466;13.436;2023-05-10T08:27:07;6.73;;;2.50;;
5149;SDS011;2593;52.466;13.436;2023-05-10T08:29:33;2.37;;;2.00;;
5149;SDS011;2593;52.466;13.436;2023-05-10T08:31:59;7.33;;;2.50;;
5149;SDS011;2593;52.466;13.436;2023-05-10T08:34:26;5.20;;;2.70;;
5149;SDS011;2593;52.466;13.436;2023-05-10T08:36:52;10.83;;;3.03;;
5149;SDS011;2593;52.466;13.436;2023-05-10T08:39:18;11.37;;;2.90;;
5149;SDS011;2593;52.466;13.436;2023-05-10T08:41:44;14.00;;;3.03;;
5149;SDS011;2593;52.466;13.436;2023-05-10T08:44:11;3.37;;;2.87;;
5149;SDS011;2593;52.466;13.436;2023-05-10T08:46:37;4.23;;;2.87;;
5149;SDS011;2593;52.466;13.436;2023-05-10T08:49:08;8.83;;;2.20;;
5149;SDS011;2593;52.466;13.436;2023-05-10T08:51:36;2.95;;;2.35;;
5149;SDS011;2593;52.466;13.436;2023-05-10T08:54:06;3.13;;;2.05;;
5149;SDS011;2593;52.466;13.436;2023-05-10T08:56:32;3.20;;;2.90;;
5149;SDS011;2593;52.466;13.436;2023-05-10T08:58:58;7.90;;;2.53;;
5149;SDS011;2593;52.466;13.436;2023-05-10T09:01:24;14.65;;;2.60;;
5149;SDS011;2593;52.466;13.436;2023-05-10T09:03:51;8.52;;;3.22;;
5149;SDS011;2593;52.466;13.436;2023-05-10T09:06:17;4.50;;;2.28;;
5149;SDS011;2593;52.466;13.436;2023-05-10T09:08:43;2.83;;;2.05;;
5149;SDS011;2593;52.466;13.436;2023-05-10T09:11:12;2.58;;;2.30;;
5149;SDS011;2593;52.466;13.436;2023-05-10T09:13:38;6.00;;;2.47;;
5149;SDS011;2593;52.466;13.436;2023-05-10T09:16:04;8.13;;;2.50;;
5149;SDS011;2593;52.466;13.436;2023-05-10T09:18:30;5.45;;;2.67;;
5149;SDS011;2593;52.466;13.436;2023-05-10T09:20:56;4.80;;;2.40;;
5149;SDS011;2593;52.466;13.436;2023-05-10T09:23:22;5.95;;;2.40;;
5149;SDS011;2593;52.466;13.436;2023-05-10T09:26:05;13.45;;;3.30;;
5149;SDS011;2593;52.466;13.436;2023-05-10T09:28:32;5.45;;;2.92;;
5149;SDS011;2593;52.466;13.436;2023-05-10T09:30:58;6.70;;;2.25;;
5149;SDS011;2593;52.466;13.436;2023-05-10T09:33:25;7.90;;;2.35;;
5149;SDS011;2593;52.466;13.436;2023-05-10T09:35:51;7.38;;;2.75;;
5149;SDS011;2593;52.466;13.436;2023-05-10T09:38:17;9.48;;;3.00;;
5149;SDS011;2593;52.466;13.436;2023-05-10T09:40:50;3.47;;;2.20;;
5149;SDS011;2593;52.466;13.436;2023-05-10T09:43:19;4.90;;;2.50;;
5149;SDS011;2593;52.466;13.436;2023-05-10T09:45:45;6.20;;;2.83;;
5149;SDS011;2593;52.466;13.436;2023-05-10T09:48:16;2.97;;;2.67;;
5149;SDS011;2593;52.466;13.436;2023-05-10T09:50:42;5.90;;;2.80;;
5149;SDS011;2593;52.466;13.436;2023-05-10T09:53:09;7.00;;;2.73;;
5149;SDS011;2593;52.466;13.436;2023-05-10T09:55:45;4.77;;;3.20;;
5149;SDS011;2593;52.466;13.436;2023-05-10T09:58:11;6.47;;;3.97;;
5149;SDS011;2593;52.466;13.436;2023-05-10T10:00:41;4.53;;;2.93;;
5149;SDS011;2593;52.466;13.436;2023-05-10T10:03:14;9.43;;;3.30;;
5149;SDS011;2593;52.466;13.436;2023-05-10T10:05:41;11.07;;;3.10;;
5149;SDS011;2593;52.466;13.436;2023-05-10T10:08:11;3.53;;;2.43;;
5149;SDS011;2593;52.466;13.436;2023-05-10T10:10:37;5.83;;;2.93;;
5149;SDS011;2593;52.466;13.436;2023-05-10T10:13:05;3.10;;;2.57;;
5149;SDS011;2593;52.466;13.436;2023-05-10T10:15:31;7.93;;;2.40;;
5149;SDS011;2593;52.466;13.436;2023-05-10T10:17:58;5.60;;;4.40;;
5149;SDS011;2593;52.466;13.436;2023-05-10T10:20:25;6.10;;;2.67;;
5149;SDS011;2593;52.466;13.436;2023-05-10T10:22:51;2.70;;;2.50;;
5149;SDS011;2593;52.466;13.436;2023-05-10T10:25:18;6.27;;;3.60;;
5149;SDS011;2593;52.466;13.436;2023-05-10T10:27:49;10.13;;;2.23;;
5149;SDS011;2593;52.466;13.436;2023-05-10T10:35:18;10.43;;;3.10;;
5149;SDS011;2593;52.466;13.436;2023-05-10T10:37:45;12.93;;;2.77;;
5149;SDS011;2593;52.466;13.436;2023-05-10T10:40:24;5.73;;;2.60;;
5149;SDS011;2593;52.466;13.436;2023-05-10T10:42:51;7.47;;;2.93;;
5149;SDS011;2593;52.466;13.436;2023-05-10T10:45:18;3.03;;;2.47;;
5149;SDS011;2593;52.466;13.436;2023-05-10T10:47:44;5.13;;;3.13;;
5149;SDS011;2593;52.466;13.436;2023-05-10T10:50:11;18.47;;;3.17;;
5149;SDS011;2593;52.466;13.436;2023-05-10T10:52:44;15.67;;;4.00;;
5149;SDS011;2593;52.466;13.436;2023-05-10T10:55:14;8.03;;;2.50;;
5149;SDS011;2593;52.466;13.436;2023-05-10T10:57:52;2.90;;;2.70;;
5149;SDS011;2593;52.466;13.436;2023-05-10T11:05:25;3.37;;;2.50;;
5149;SDS011;2593;52.466;13.436;2023-05-10T11:07:52;7.70;;;2.80;;
5149;SDS011;2593;52.466;13.436;2023-05-10T11:10:25;7.23;;;2.70;;
5149;SDS011;2593;52.466;13.436;2023-05-10T11:13:01;6.63;;;2.30;;
5149;SDS011;2593;52.466;13.436;2023-05-10T11:15:28;3.60;;;2.50;;
5149;SDS011;2593;52.466;13.436;2023-05-10T11:17:55;4.87;;;3.00;;
5149;SDS011;2593;52.466;13.436;2023-05-10T11:20:21;5.13;;;2.80;;
5149;SDS011;2593;52.466;13.436;2023-05-10T11:22:53;2.40;;;2.20;;
5149;SDS011;2593;52.466;13.436;2023-05-10T11:25:20;9.33;;;3.33;;
5149;SDS011;2593;52.466;13.436;2023-05-10T11:27:49;4.33;;;2.53;;
5149;SDS011;2593;52.466;13.436;2023-05-10T11:30:15;2.90;;;2.60;;
5149;SDS011;2593;52.466;13.436;2023-05-10T11:32:42;5.80;;;2.97;;
5149;SDS011;2593;52.466;13.436;2023-05-10T11:35:08;8.23;;;2.80;;
5149;SDS011;2593;52.466;13.436;2023-05-10T11:37:35;8.03;;;2.87;;
5149;SDS011;2593;52.466;13.436;2023-05-10T11:40:01;5.90;;;2.73;;
5149;SDS011;2593;52.466;13.436;2023-05-10T11:42:28;10.30;;;2.27;;
5149;SDS011;2593;52.466;13.436;2023-05-10T11:44:54;6.20;;;2.70;;
5149;SDS011;2593;52.466;13.436;2023-05-10T11:47:20;5.80;;;2.70;;
5149;SDS011;2593;52.466;13.436;2023-05-10T11:49:47;4.13;;;2.77;;
5149;SDS011;2593;52.466;13.436;2023-05-10T11:52:13;7.53;;;2.77;;
5149;SDS011;2593;52.466;13.436;2023-05-10T11:54:55;4.83;;;2.63;;
5149;SDS011;2593;52.466;13.436;2023-05-10T11:57:25;4.10;;;2.77;;
5149;SDS011;2593;52.466;13.436;2023-05-10T11:59:54;19.87;;;3.07;;
5149;SDS011;2593;52.466;13.436;2023-05-10T12:02:22;4.50;;;2.93;;
5149;SDS011;2593;52.466;13.436;2023-05-10T12:04:48;4.23;;;3.10;;
5149;SDS011;2593;52.466;13.436;2023-05-10T12:07:15;4.20;;;2.40;;
5149;SDS011;2593;52.466;13.436;2023-05-10T12:09:44;6.30;;;2.53;;
5149;SDS011;2593;52.466;13.436;2023-05-10T12:12:15;2.73;;;2.50;;
5149;SDS011;2593;52.466;13.436;2023-05-10T12:14:41;5.30;;;2.90;;
5149;SDS011;2593;52.466;13.436;2023-05-10T12:17:11;3.80;;;2.67;;
5149;SDS011;2593;52.466;13.436;2023-05-10T12:19:38;3.97;;;2.67;;
5149;SDS011;2593;52.466;13.436;2023-05-10T12:22:05;4.40;;;2.50;;
5149;SDS011;2593;52.466;13.436;2023-05-10T12:24:33;3.37;;;3.07;;
5149;SDS011;2593;52.466;13.436;2023-05-10T12:26:59;6.20;;;2.80;;
5149;SDS011;2593;52.466;13.436;2023-05-10T12:29:25;4.13;;;2.77;;
5149;SDS011;2593;52.466;13.436;2023-05-10T12:31:57;6.20;;;2.60;;
5149;SDS011;2593;52.466;13.436;2023-05-10T12:34:31;16.90;;;2.70;;
5149;SDS011;2593;52.466;13.436;2023-05-10T12:36:57;4.70;;;3.20;;
5149;SDS011;2593;52.466;13.436;2023-05-10T12:39:24;8.93;;;3.17;;
5149;SDS011;2593;52.466;13.436;2023-05-10T12:41:50;5.63;;;2.80;;
5149;SDS011;2593;52.466;13.436;2023-05-10T12:44:17;3.10;;;2.80;;
5149;SDS011;2593;52.466;13.436;2023-05-10T12:46:43;3.00;;;2.70;;
5149;SDS011;2593;52.466;13.436;2023-05-10T12:49:09;8.97;;;3.20;;
5149;SDS011;2593;52.466;13.436;2023-05-10T12:51:35;3.37;;;2.40;;
5149;SDS011;2593;52.466;13.436;2023-05-10T12:54:02;6.43;;;3.33;;
5149;SDS011;2593;52.466;13.436;2023-05-10T12:56:28;7.40;;;2.63;;
5149;SDS011;2593;52.466;13.436;2023-05-10T12:58:54;7.13;;;2.53;;
5149;SDS011;2593;52.466;13.436;2023-05-10T13:01:20;5.97;;;2.47;;
5149;SDS011;2593;52.466;13.436;2023-05-10T13:03:46;4.37;;;3.00;;
5149;SDS011;2593;52.466;13.436;2023-05-10T13:06:13;5.23;;;3.67;;
5149;SDS011;2593;52.466;13.436;2023-05-10T13:08:39;2.73;;;2.53;;
5149;SDS011;2593;52.466;13.436;2023-05-10T13:11:05;9.13;;;3.47;;
5149;SDS011;2593;52.466;13.436;2023-05-10T13:13:31;5.77;;;3.30;;
5149;SDS011;2593;52.466;13.436;2023-05-10T13:15:57;5.30;;;2.77;;
5149;SDS011;2593;52.466;13.436;2023-05-10T13:18:23;5.60;;;2.70;;
5149;SDS011;2593;52.466;13.436;2023-05-10T13:20:49;7.63;;;2.57;;
5149;SDS011;2593;52.466;13.436;2023-05-10T13:23:15;5.53;;;3.27;;
5149;SDS011;2593;52.466;13.436;2023-05-10T13:25:41;2.77;;;2.57;;
5149;SDS011;2593;52.466;13.436;2023-05-10T13:28:07;9.97;;;3.13;;
5149;SDS011;2593;52.466;13.436;2023-05-10T13:30:33;6.77;;;2.80;;
5149;SDS011;2593;52.466;13.436;2023-05-10T13:33:00;3.37;;;2.93;;
5149;SDS011;2593;52.466;13.436;2023-05-10T13:35:26;5.70;;;3.27;;
5149;SDS011;2593;52.466;13.436;2023-05-10T13:37:52;4.80;;;2.77;;
5149;SDS011;2593;52.466;13.436;2023-05-10T13:40:18;5.47;;;2.77;;
5149;SDS011;2593;52.466;13.436;2023-05-10T13:42:44;7.83;;;2.60;;
5149;SDS011;2593;52.466;13.436;2023-05-10T13:45:10;7.57;;;3.00;;
5149;SDS011;2593;52.466;13.436;2023-05-10T13:47:37;3.13;;;2.20;;
5149;SDS011;2593;52.466;13.436;2023-05-10T13:50:03;4.70;;;1.90;;
5149;SDS011;2593;52.466;13.436;2023-05-10T13:52:29;3.30;;;1.80;;
5149;SDS011;2593;52.466;13.436;2023-05-10T13:54:55;12.07;;;2.53;;
5149;SDS011;2593;52.466;13.436;2023-05-10T13:57:22;4.10;;;2.60;;
5149;SDS011;2593;52.466;13.436;2023-05-10T13:59:49;8.20;;;3.20;;
5149;SDS011;2593;52.466;13.436;2023-05-10T14:02:15;10.63;;;2.60;;
5149;SDS011;2593;52.466;13.436;2023-05-10T14:04:41;10.60;;;2.30;;
5149;SDS011;2593;52.466;13.436;2023-05-10T14:07:07;2.40;;;2.20;;
5149;SDS011;2593;52.466;13.436;2023-05-10T14:09:33;4.13;;;3.07;;
5149;SDS011;2593;52.466;13.436;2023-05-10T14:11:59;10.53;;;2.60;;
5149;SDS011;2593;52.466;13.436;2023-05-10T14:14:25;2.93;;;2.73;;
5149;SDS011;2593;52.466;13.436;2023-05-10T14:16:53;2.80;;;2.10;;
5149;SDS011;2593;52.466;13.436;2023-05-10T14:19:19;3.07;;;2.83;;
5149;SDS011;2593;52.466;13.436;2023-05-10T14:21:45;2.90;;;2.43;;
5149;SDS011;2593;52.466;13.436;2023-05-10T14:24:11;7.90;;;2.43;;
5149;SDS011;2593;52.466;13.436;2023-05-10T14:26:37;3.87;;;2.03;;
5149;SDS011;2593;52.466;13.436;2023-05-10T14:29:03;4.10;;;2.40;;
5149;SDS011;2593;52.466;13.436;2023-05-10T14:31:29;2.63;;;2.43;;
5149;SDS011;2593;52.466;13.436;2023-05-10T14:33:55;6.77;;;2.77;;
5149;SDS011;2593;52.466;13.436;2023-05-10T14:36:22;2.60;;;2.40;;
5149;SDS011;2593;52.466;13.436;2023-05-10T14:38:48;2.37;;;2.17;;
5149;SDS011;2593;52.466;13.436;2023-05-10T14:41:15;3.30;;;2.40;;
5149;SDS011;2593;52.466;13.436;2023-05-10T14:43:42;8.17;;;3.30;;
5149;SDS011;2593;52.466;13.436;2023-05-10T14:46:08;2.30;;;2.07;;
5149;SDS011;2593;52.466;13.436;2023-05-10T14:48:34;6.13;;;3.33;;
5149;SDS011;2593;52.466;13.436;2023-05-10T14:51:01;12.70;;;2.50;;
5149;SDS011;2593;52.466;13.436;2023-05-10T14:53:28;2.63;;;2.43;;
5149;SDS011;2593;52.466;13.436;2023-05-10T14:55:54;11.87;;;3.17;;
5149;SDS011;2593;52.466;13.436;2023-05-10T14:58:20;3.13;;;2.43;;
5149;SDS011;2593;52.466;13.436;2023-05-10T15:00:46;6.63;;;3.10;;
5149;SDS011;2593;52.466;13.436;2023-05-10T15:03:12;4.43;;;2.70;;
5149;SDS011;2593;52.466;13.436;2023-05-10T15:05:38;7.63;;;2.80;;
5149;SDS011;2593;52.466;13.436;2023-05-10T15:08:05;3.00;;;2.70;;
5149;SDS011;2593;52.466;13.436;2023-05-10T15:10:31;3.67;;;2.23;;
5149;SDS011;2593;52.466;13.436;2023-05-10T15:12:57;5.03;;;2.30;;
5149;SDS011;2593;52.466;13.436;2023-05-10T15:15:24;5.27;;;3.13;;
5149;SDS011;2593;52.466;13.436;2023-05-10T15:17:50;7.43;;;2.37;;
5149;SDS011;2593;52.466;13.436;2023-05-10T15:20:16;6.03;;;2.47;;
5149;SDS011;2593;52.466;13.436;2023-05-10T15:22:42;8.00;;;2.47;;
5149;SDS011;2593;52.466;13.436;2023-05-10T15:25:08;5.80;;;2.63;;
5149;SDS011;2593;52.466;13.436;2023-05-10T15:27:35;3.93;;;2.90;;